sensor_id;sensor_type;location;lat;lon;timestamp;pressure;altitude;pressure_sealevel;temperature;humidity
30614;BME280;17381;51.690;5.270;2023-04-22T12:18:51;100558.50;;;14.57;82.69
30614;BME280;17381;51.690;5.270;2023-04-22T12:21:42;100550.34;;;14.61;83.60
30614;BME280;17381;51.690;5.270;2023-04-22T12:24:12;100548.63;;;14.60;83.37
30614;BME280;17381;51.690;5.270;2023-04-22T12:26:54;100524.88;;;14.40;83.54
30614;BME280;17381;51.690;5.270;2023-04-22T13:16:34;100591.97;;;14.18;86.23
30614;BME280;17381;51.690;5.270;2023-04-22T13:19:45;100593.47;;;14.24;86.83
30614;BME280;17381;51.690;5.270;2023-04-22T13:22:16;100590.31;;;14.35;87.04
30614;BME280;17381;51.690;5.270;2023-04-22T13:24:45;100589.56;;;14.33;87.08
30614;BME280;17381;51.690;5.270;2023-04-22T13:34:54;100583.69;;;14.45;87.49
30614;BME280;17381;51.690;5.270;2023-04-22T13:37:41;100581.03;;;14.45;86.57
30614;BME280;17381;51.690;5.270;2023-04-22T13:40:36;100585.41;;;14.46;85.92
30614;BME280;17381;51.690;5.270;2023-04-22T13:43:39;100589.44;;;14.55;86.39
30614;BME280;17381;51.690;5.270;2023-04-22T14:17:24;100560.06;;;14.61;84.48
30614;BME280;17381;51.690;5.270;2023-04-22T14:32:02;100562.34;;;14.69;85.00
30614;BME280;17381;51.690;5.270;2023-04-22T14:34:51;100572.22;;;14.65;84.69
30614;BME280;17381;51.690;5.270;2023-04-22T14:37:29;100566.50;;;14.55;84.57
30614;BME280;17381;51.690;5.270;2023-04-22T14:40:43;100576.22;;;14.55;84.67
30614;BME280;17381;51.690;5.270;2023-04-22T14:43:25;100578.06;;;14.53;84.82
30614;BME280;17381;51.690;5.270;2023-04-22T14:46:14;100570.09;;;14.54;84.63
30614;BME280;17381;51.690;5.270;2023-04-22T15:19:36;100586.84;;;13.95;86.80
30614;BME280;17381;51.690;5.270;2023-04-22T15:22:10;100589.19;;;14.01;86.80
30614;BME280;17381;51.690;5.270;2023-04-22T15:24:45;100598.97;;;13.99;86.27
30614;BME280;17381;51.690;5.270;2023-04-22T15:27:15;100601.09;;;13.91;86.39
30614;BME280;17381;51.690;5.270;2023-04-22T15:30:07;100599.84;;;13.79;86.59
30614;BME280;17381;51.690;5.270;2023-04-22T15:32:35;100591.47;;;13.69;86.53
30614;BME280;17381;51.690;5.270;2023-04-22T15:35:05;100602.16;;;13.66;86.25
30614;BME280;17381;51.690;5.270;2023-04-22T15:37:35;100594.44;;;13.62;86.47
30614;BME280;17381;51.690;5.270;2023-04-22T15:51:32;100615.25;;;13.27;87.34
30614;BME280;17381;51.690;5.270;2023-04-22T15:54:29;100612.91;;;13.19;87.56
30614;BME280;17381;51.690;5.270;2023-04-22T15:57:05;100570.97;;;12.90;87.52
30614;BME280;17381;51.690;5.270;2023-04-22T16:00:01;100617.91;;;13.03;87.83
30614;BME280;17381;51.690;5.270;2023-04-22T16:03:05;100615.50;;;12.97;88.15
30614;BME280;17381;51.690;5.270;2023-04-22T16:06:13;100619.38;;;12.88;88.43
30614;BME280;17381;51.690;5.270;2023-04-22T16:09:18;100621.38;;;12.82;87.74
30614;BME280;17381;51.690;5.270;2023-04-22T16:12:23;100614.06;;;12.66;87.95
30614;BME280;17381;51.690;5.270;2023-04-22T16:15:15;100640.31;;;12.70;88.49
30614;BME280;17381;51.690;5.270;2023-04-22T16:17:45;100612.28;;;12.43;88.28
30614;BME280;17381;51.690;5.270;2023-04-22T16:20:17;100636.50;;;12.55;88.47
30614;BME280;17381;51.690;5.270;2023-04-22T16:22:47;100632.41;;;12.46;88.56
30614;BME280;17381;51.690;5.270;2023-04-22T16:25:16;100643.94;;;12.43;87.84
30614;BME280;17381;51.690;5.270;2023-04-22T16:27:51;100653.94;;;12.34;87.65
30614;BME280;17381;51.690;5.270;2023-04-22T16:30:23;100655.94;;;12.27;87.30
30614;BME280;17381;51.690;5.270;2023-04-22T16:48:53;100600.84;;;11.96;86.72
30614;BME280;17381;51.690;5.270;2023-04-22T17:25:44;100667.34;;;11.76;86.85
30614;BME280;17381;51.690;5.270;2023-04-22T17:31:55;100682.75;;;11.62;86.65
30614;BME280;17381;51.690;5.270;2023-04-22T17:34:31;100659.56;;;11.46;86.44
30614;BME280;17381;51.690;5.270;2023-04-22T17:37:00;100689.78;;;11.61;86.25
30614;BME280;17381;51.690;5.270;2023-04-22T17:39:26;100689.22;;;11.51;86.15
30614;BME280;17381;51.690;5.270;2023-04-22T17:45:59;100698.94;;;11.49;85.89
30614;BME280;17381;51.690;5.270;2023-04-22T17:48:33;100708.66;;;11.47;85.90
30614;BME280;17381;51.690;5.270;2023-04-22T17:51:05;100689.31;;;11.48;86.06
30614;BME280;17381;51.690;5.270;2023-04-22T17:53:39;100715.34;;;11.57;85.84
30614;BME280;17381;51.690;5.270;2023-04-22T17:56:28;100710.03;;;11.59;85.52
30614;BME280;17381;51.690;5.270;2023-04-22T17:58:57;100716.25;;;11.56;85.58
30614;BME280;17381;51.690;5.270;2023-04-22T18:35:36;100753.59;;;11.11;84.94
30614;BME280;17381;51.690;5.270;2023-04-22T18:38:12;100758.88;;;11.10;84.92
30614;BME280;17381;51.690;5.270;2023-04-22T18:40:47;100766.88;;;11.07;85.02
30614;BME280;17381;51.690;5.270;2023-04-22T18:43:24;100767.06;;;11.01;84.90
30614;BME280;17381;51.690;5.270;2023-04-22T18:45:51;100773.38;;;10.95;84.90
30614;BME280;17381;51.690;5.270;2023-04-22T18:48:16;100742.97;;;10.85;84.96
30614;BME280;17381;51.690;5.270;2023-04-22T18:50:43;100759.47;;;10.90;84.72
30614;BME280;17381;51.690;5.270;2023-04-22T18:57:32;100771.19;;;10.78;84.69
30614;BME280;17381;51.690;5.270;2023-04-22T19:11:01;100789.16;;;10.62;84.51
30614;BME280;17381;51.690;5.270;2023-04-22T19:13:27;100793.50;;;10.63;84.24
30614;BME280;17381;51.690;5.270;2023-04-22T19:16:14;100780.56;;;10.56;83.76
30614;BME280;17381;51.690;5.270;2023-04-22T19:25:52;100790.56;;;10.43;83.41
30614;BME280;17381;51.690;5.270;2023-04-22T19:28:43;100787.03;;;10.44;83.31
30614;BME280;17381;51.690;5.270;2023-04-22T19:31:34;100791.56;;;10.37;83.58
30614;BME280;17381;51.690;5.270;2023-04-22T19:34:49;100798.59;;;10.37;83.46
30614;BME280;17381;51.690;5.270;2023-04-22T19:37:10;100804.78;;;10.34;83.50
30614;BME280;17381;51.690;5.270;2023-04-22T19:40:06;100804.94;;;10.26;83.02
30614;BME280;17381;51.690;5.270;2023-04-22T19:43:11;100811.19;;;10.22;82.97
30614;BME280;17381;51.690;5.270;2023-04-22T19:45:44;100800.78;;;10.18;83.16
30614;BME280;17381;51.690;5.270;2023-04-22T20:16:40;100800.94;;;9.76;84.35
30614;BME280;17381;51.690;5.270;2023-04-22T20:20:08;100796.47;;;9.79;84.51
30614;BME280;17381;51.690;5.270;2023-04-22T20:23:31;100781.63;;;9.78;84.25
30614;BME280;17381;51.690;5.270;2023-04-22T20:26:14;100794.84;;;9.74;84.22
30614;BME280;17381;51.690;5.270;2023-04-22T20:29:26;100788.59;;;9.78;84.72
30614;BME280;17381;51.690;5.270;2023-04-22T20:47:20;100723.38;;;9.25;84.50
30614;BME280;17381;51.690;5.270;2023-04-22T20:50:08;100756.09;;;9.48;84.85
30614;BME280;17381;51.690;5.270;2023-04-22T20:53:06;100783.53;;;9.70;84.92
30614;BME280;17381;51.690;5.270;2023-04-22T20:56:01;100782.59;;;9.73;84.26
30614;BME280;17381;51.690;5.270;2023-04-22T21:02:17;100773.97;;;9.68;84.55
30614;BME280;17381;51.690;5.270;2023-04-22T21:05:02;100784.44;;;9.71;84.32
30614;BME280;17381;51.690;5.270;2023-04-22T21:07:46;100787.84;;;9.74;84.23
30614;BME280;17381;51.690;5.270;2023-04-22T21:10:29;100793.22;;;9.68;84.38
30614;BME280;17381;51.690;5.270;2023-04-22T22:45:38;100810.59;;;9.33;86.05
30614;BME280;17381;51.690;5.270;2023-04-22T22:48:31;100756.09;;;9.06;86.09
30614;BME280;17381;51.690;5.270;2023-04-22T22:51:38;100807.06;;;9.34;86.19
30614;BME280;17381;51.690;5.270;2023-04-22T22:54:21;100769.19;;;9.09;86.55
30614;BME280;17381;51.690;5.270;2023-04-22T23:04:33;100780.91;;;9.33;86.24
30614;BME280;17381;51.690;5.270;2023-04-22T23:20:00;100791.34;;;9.34;85.99
30614;BME280;17381;51.690;5.270;2023-04-22T23:22:51;100796.56;;;9.34;86.41
30614;BME280;17381;51.690;5.270;2023-04-22T23:25:36;100786.09;;;9.34;85.71
30614;BME280;17381;51.690;5.270;2023-04-22T23:31:57;100776.56;;;9.30;85.63
30614;BME280;17381;51.690;5.270;2023-04-22T23:43:34;100776.91;;;9.15;85.72
